sensor_id;sensor_type;location;lat;lon;timestamp;temperature;humidity
7399;DHT22;3740;50.700;7.184;2023-04-03T00:00:09;7.40;99.90
7399;DHT22;3740;50.700;7.184;2023-04-03T00:02:35;7.50;99.90
7399;DHT22;3740;50.700;7.184;2023-04-03T00:05:00;7.50;99.90
7399;DHT22;3740;50.700;7.184;2023-04-03T00:07:26;7.50;99.90
7399;DHT22;3740;50.700;7.184;2023-04-03T00:09:52;7.30;99.90
7399;DHT22;3740;50.700;7.184;2023-04-03T00:12:17;7.10;99.90
7399;DHT22;3740;50.700;7.184;2023-04-03T00:14:43;6.90;99.90
7399;DHT22;3740;50.700;7.184;2023-04-03T00:17:08;6.80;99.90
7399;DHT22;3740;50.700;7.184;2023-04-03T00:19:34;6.70;99.90
7399;DHT22;3740;50.700;7.184;2023-04-03T00:22:00;6.90;99.90
7399;DHT22;3740;50.700;7.184;2023-04-03T00:24:26;7.10;99.90
7399;DHT22;3740;50.700;7.184;2023-04-03T00:26:51;7.30;99.90
7399;DHT22;3740;50.700;7.184;2023-04-03T00:29:17;7.50;99.90
7399;DHT22;3740;50.700;7.184;2023-04-03T00:31:42;7.30;99.90
7399;DHT22;3740;50.700;7.184;2023-04-03T00:34:08;7.10;99.90
7399;DHT22;3740;50.700;7.184;2023-04-03T00:36:33;6.90;99.90
7399;DHT22;3740;50.700;7.184;2023-04-03T00:38:59;6.70;99.90
7399;DHT22;3740;50.700;7.184;2023-04-03T00:41:25;6.70;99.90
7399;DHT22;3740;50.700;7.184;2023-04-03T00:43:51;6.60;99.90
7399;DHT22;3740;50.700;7.184;2023-04-03T00:46:17;6.60;99.90
7399;DHT22;3740;50.700;7.184;2023-04-03T00:48:47;6.90;99.90
7399;DHT22;3740;50.700;7.184;2023-04-03T00:51:19;7.10;99.90
7399;DHT22;3740;50.700;7.184;2023-04-03T00:53:50;7.30;99.90
7399;DHT22;3740;50.700;7.184;2023-04-03T00:56:18;7.40;99.90
7399;DHT22;3740;50.700;7.184;2023-04-03T00:58:58;7.20;99.90
7399;DHT22;3740;50.700;7.184;2023-04-03T01:01:27;7.10;99.90
7399;DHT22;3740;50.700;7.184;2023-04-03T01:03:54;6.90;99.90
7399;DHT22;3740;50.700;7.184;2023-04-03T01:06:28;6.80;99.90
7399;DHT22;3740;50.700;7.184;2023-04-03T01:08:56;6.70;99.90
7399;DHT22;3740;50.700;7.184;2023-04-03T01:11:22;6.50;99.90
7399;DHT22;3740;50.700;7.184;2023-04-03T01:13:48;6.60;99.90
7399;DHT22;3740;50.700;7.184;2023-04-03T01:16:14;6.80;99.90
7399;DHT22;3740;50.700;7.184;2023-04-03T01:18:40;7.00;99.90
7399;DHT22;3740;50.700;7.184;2023-04-03T01:24:43;7.10;99.90
7399;DHT22;3740;50.700;7.184;2023-04-03T01:27:05;7.00;99.90
7399;DHT22;3740;50.700;7.184;2023-04-03T01:29:31;6.70;99.90
7399;DHT22;3740;50.700;7.184;2023-04-03T01:31:59;6.60;99.90
7399;DHT22;3740;50.700;7.184;2023-04-03T01:34:25;6.60;99.90
7399;DHT22;3740;50.700;7.184;2023-04-03T01:36:52;6.50;99.90
7399;DHT22;3740;50.700;7.184;2023-04-03T01:39:18;6.50;99.90
7399;DHT22;3740;50.700;7.184;2023-04-03T01:41:44;6.50;99.90
7399;DHT22;3740;50.700;7.184;2023-04-03T01:44:10;6.80;99.90
7399;DHT22;3740;50.700;7.184;2023-04-03T01:46:36;7.00;99.90
7399;DHT22;3740;50.700;7.184;2023-04-03T01:49:03;7.00;99.90
7399;DHT22;3740;50.700;7.184;2023-04-03T01:51:29;7.10;99.90
7399;DHT22;3740;50.700;7.184;2023-04-03T01:53:55;6.80;99.90
7399;DHT22;3740;50.700;7.184;2023-04-03T01:56:20;6.60;99.90
7399;DHT22;3740;50.700;7.184;2023-04-03T01:58:46;6.50;99.90
7399;DHT22;3740;50.700;7.184;2023-04-03T02:01:12;6.30;99.90
7399;DHT22;3740;50.700;7.184;2023-04-03T02:03:37;6.20;99.90
7399;DHT22;3740;50.700;7.184;2023-04-03T02:06:03;6.20;99.90
7399;DHT22;3740;50.700;7.184;2023-04-03T02:08:28;6.10;99.90
7399;DHT22;3740;50.700;7.184;2023-04-03T02:10:54;6.20;99.90
7399;DHT22;3740;50.700;7.184;2023-04-03T02:13:20;6.50;99.90
7399;DHT22;3740;50.700;7.184;2023-04-03T02:15:46;6.70;99.90
7399;DHT22;3740;50.700;7.184;2023-04-03T02:18:11;6.90;99.90
7399;DHT22;3740;50.700;7.184;2023-04-03T02:20:37;6.90;99.90
7399;DHT22;3740;50.700;7.184;2023-04-03T02:23:03;6.80;99.90
7399;DHT22;3740;50.700;7.184;2023-04-03T02:25:30;6.50;99.90
7399;DHT22;3740;50.700;7.184;2023-04-03T02:27:56;6.40;99.90
7399;DHT22;3740;50.700;7.184;2023-04-03T02:30:21;6.20;99.90
7399;DHT22;3740;50.700;7.184;2023-04-03T02:32:47;6.00;99.90
7399;DHT22;3740;50.700;7.184;2023-04-03T02:35:12;5.90;99.90
7399;DHT22;3740;50.700;7.184;2023-04-03T02:37:38;5.80;99.90
7399;DHT22;3740;50.700;7.184;2023-04-03T02:40:05;5.90;99.90
7399;DHT22;3740;50.700;7.184;2023-04-03T02:42:31;6.10;99.90
7399;DHT22;3740;50.700;7.184;2023-04-03T02:44:57;6.30;99.90
7399;DHT22;3740;50.700;7.184;2023-04-03T02:47:22;6.50;99.90
7399;DHT22;3740;50.700;7.184;2023-04-03T02:49:48;6.60;99.90
7399;DHT22;3740;50.700;7.184;2023-04-03T02:52:14;6.50;99.90
7399;DHT22;3740;50.700;7.184;2023-04-03T02:54:40;6.20;99.90
7399;DHT22;3740;50.700;7.184;2023-04-03T02:57:06;6.00;99.90
7399;DHT22;3740;50.700;7.184;2023-04-03T02:59:35;5.90;99.90
7399;DHT22;3740;50.700;7.184;2023-04-03T03:02:00;5.70;99.90
7399;DHT22;3740;50.700;7.184;2023-04-03T03:04:26;5.70;99.90
7399;DHT22;3740;50.700;7.184;2023-04-03T03:06:51;5.60;99.90
7399;DHT22;3740;50.700;7.184;2023-04-03T03:09:18;5.50;99.90
7399;DHT22;3740;50.700;7.184;2023-04-03T03:11:43;5.60;99.90
7399;DHT22;3740;50.700;7.184;2023-04-03T03:14:09;5.80;99.90
7399;DHT22;3740;50.700;7.184;2023-04-03T03:16:35;6.00;99.90
7399;DHT22;3740;50.700;7.184;2023-04-03T03:19:01;6.20;99.90
7399;DHT22;3740;50.700;7.184;2023-04-03T03:21:26;6.20;99.90
7399;DHT22;3740;50.700;7.184;2023-04-03T03:23:52;6.10;99.90
7399;DHT22;3740;50.700;7.184;2023-04-03T03:26:17;5.90;99.90
7399;DHT22;3740;50.700;7.184;2023-04-03T03:28:43;5.60;99.90
7399;DHT22;3740;50.700;7.184;2023-04-03T03:31:09;5.30;99.90
7399;DHT22;3740;50.700;7.184;2023-04-03T03:33:35;5.10;99.90
7399;DHT22;3740;50.700;7.184;2023-04-03T03:49:50;5.50;99.90
7399;DHT22;3740;50.700;7.184;2023-04-03T03:52:16;5.70;99.90
7399;DHT22;3740;50.700;7.184;2023-04-03T03:54:41;5.70;99.90
7399;DHT22;3740;50.700;7.184;2023-04-03T03:57:07;5.60;99.90
7399;DHT22;3740;50.700;7.184;2023-04-03T03:59:32;5.40;99.90
7399;DHT22;3740;50.700;7.184;2023-04-03T04:01:58;5.20;99.90
7399;DHT22;3740;50.700;7.184;2023-04-03T04:04:23;4.90;99.90
7399;DHT22;3740;50.700;7.184;2023-04-03T04:06:49;4.80;99.90
7399;DHT22;3740;50.700;7.184;2023-04-03T04:09:14;4.60;99.90
7399;DHT22;3740;50.700;7.184;2023-04-03T04:11:40;4.60;99.90
7399;DHT22;3740;50.700;7.184;2023-04-03T04:14:06;4.60;99.90
7399;DHT22;3740;50.700;7.184;2023-04-03T04:16:32;4.50;99.90
7399;DHT22;3740;50.700;7.184;2023-04-03T04:18:57;4.40;99.90
7399;DHT22;3740;50.700;7.184;2023-04-03T04:21:23;4.50;99.90
7399;DHT22;3740;50.700;7.184;2023-04-03T04:23:49;4.80;99.90
7399;DHT22;3740;50.700;7.184;2023-04-03T04:26:14;4.90;99.90
7399;DHT22;3740;50.700;7.184;2023-04-03T04:28:40;5.20;99.90
7399;DHT22;3740;50.700;7.184;2023-04-03T04:31:05;5.30;99.90
7399;DHT22;3740;50.700;7.184;2023-04-03T04:33:31;5.30;99.90
7399;DHT22;3740;50.700;7.184;2023-04-03T04:35:56;5.20;99.90
7399;DHT22;3740;50.700;7.184;2023-04-03T04:38:22;5.00;99.90
7399;DHT22;3740;50.700;7.184;2023-04-03T04:40:48;4.80;99.90
7399;DHT22;3740;50.700;7.184;2023-04-03T04:43:14;4.80;99.90
7399;DHT22;3740;50.700;7.184;2023-04-03T04:45:40;4.60;99.90
7399;DHT22;3740;50.700;7.184;2023-04-03T04:48:06;4.60;99.90
7399;DHT22;3740;50.700;7.184;2023-04-03T04:50:32;4.80;99.90
7399;DHT22;3740;50.700;7.184;2023-04-03T04:52:57;5.00;99.90
7399;DHT22;3740;50.700;7.184;2023-04-03T04:55:23;5.10;99.90
7399;DHT22;3740;50.700;7.184;2023-04-03T04:57:48;5.20;99.90
7399;DHT22;3740;50.700;7.184;2023-04-03T05:00:14;5.20;99.90
7399;DHT22;3740;50.700;7.184;2023-04-03T05:02:40;5.20;99.90
7399;DHT22;3740;50.700;7.184;2023-04-03T05:05:07;5.10;99.90
7399;DHT22;3740;50.700;7.184;2023-04-03T05:07:32;5.10;99.90
7399;DHT22;3740;50.700;7.184;2023-04-03T05:09:58;4.90;99.90
7399;DHT22;3740;50.700;7.184;2023-04-03T05:12:23;4.80;99.90
7399;DHT22;3740;50.700;7.184;2023-04-03T05:14:49;4.70;99.90
7399;DHT22;3740;50.700;7.184;2023-04-03T05:17:15;4.70;99.90
7399;DHT22;3740;50.700;7.184;2023-04-03T05:19:40;4.70;99.90
7399;DHT22;3740;50.700;7.184;2023-04-03T05:22:06;4.80;99.90
7399;DHT22;3740;50.700;7.184;2023-04-03T05:24:31;4.90;99.90
7399;DHT22;3740;50.700;7.184;2023-04-03T05:26:57;4.90;99.90
7399;DHT22;3740;50.700;7.184;2023-04-03T05:29:23;5.10;99.90
7399;DHT22;3740;50.700;7.184;2023-04-03T05:31:51;5.10;99.90
7399;DHT22;3740;50.700;7.184;2023-04-03T05:34:17;4.90;99.90
7399;DHT22;3740;50.700;7.184;2023-04-03T05:36:42;4.80;99.90
7399;DHT22;3740;50.700;7.184;2023-04-03T05:39:08;4.80;99.90
7399;DHT22;3740;50.700;7.184;2023-04-03T05:41:34;4.70;99.90
7399;DHT22;3740;50.700;7.184;2023-04-03T05:44:00;4.50;99.90
7399;DHT22;3740;50.700;7.184;2023-04-03T05:46:26;4.50;99.90
7399;DHT22;3740;50.700;7.184;2023-04-03T05:48:52;4.40;99.90
7399;DHT22;3740;50.700;7.184;2023-04-03T05:51:20;4.40;99.90
7399;DHT22;3740;50.700;7.184;2023-04-03T05:53:47;4.40;99.90
7399;DHT22;3740;50.700;7.184;2023-04-03T05:56:14;4.50;99.90
7399;DHT22;3740;50.700;7.184;2023-04-03T05:58:39;4.70;99.90
7399;DHT22;3740;50.700;7.184;2023-04-03T06:01:05;4.90;99.90
7399;DHT22;3740;50.700;7.184;2023-04-03T06:03:31;5.00;99.90
7399;DHT22;3740;50.700;7.184;2023-04-03T06:05:57;5.10;99.90
7399;DHT22;3740;50.700;7.184;2023-04-03T06:08:22;5.10;99.90
7399;DHT22;3740;50.700;7.184;2023-04-03T06:10:49;5.00;99.90
7399;DHT22;3740;50.700;7.184;2023-04-03T06:13:15;4.10;99.90
7399;DHT22;3740;50.700;7.184;2023-04-03T06:15:41;4.80;99.90
7399;DHT22;3740;50.700;7.184;2023-04-03T06:18:06;4.80;99.90
7399;DHT22;3740;50.700;7.184;2023-04-03T06:20:32;4.80;99.90
7399;DHT22;3740;50.700;7.184;2023-04-03T06:22:57;4.90;99.90
7399;DHT22;3740;50.700;7.184;2023-04-03T06:25:23;4.90;99.90
7399;DHT22;3740;50.700;7.184;2023-04-03T06:27:49;5.00;99.90
7399;DHT22;3740;50.700;7.184;2023-04-03T06:30:14;5.20;99.90
7399;DHT22;3740;50.700;7.184;2023-04-03T06:32:40;5.40;99.90
7399;DHT22;3740;50.700;7.184;2023-04-03T06:35:06;5.50;99.90
7399;DHT22;3740;50.700;7.184;2023-04-03T06:37:32;5.40;99.90
7399;DHT22;3740;50.700;7.184;2023-04-03T06:39:58;5.30;99.90
7399;DHT22;3740;50.700;7.184;2023-04-03T06:42:25;5.20;99.90
7399;DHT22;3740;50.700;7.184;2023-04-03T06:44:51;5.10;99.90
7399;DHT22;3740;50.700;7.184;2023-04-03T06:47:17;5.10;99.90
7399;DHT22;3740;50.700;7.184;2023-04-03T06:49:43;5.00;99.90
7399;DHT22;3740;50.700;7.184;2023-04-03T06:52:09;5.00;99.90
7399;DHT22;3740;50.700;7.184;2023-04-03T06:54:37;5.20;99.90
7399;DHT22;3740;50.700;7.184;2023-04-03T06:57:03;5.40;99.90
7399;DHT22;3740;50.700;7.184;2023-04-03T06:59:29;5.40;99.90
7399;DHT22;3740;50.700;7.184;2023-04-03T07:01:55;5.60;99.90
7399;DHT22;3740;50.700;7.184;2023-04-03T07:04:21;5.50;99.90
7399;DHT22;3740;50.700;7.184;2023-04-03T07:06:47;5.50;99.90
7399;DHT22;3740;50.700;7.184;2023-04-03T07:09:14;5.50;99.90
7399;DHT22;3740;50.700;7.184;2023-04-03T07:11:40;5.50;99.90
7399;DHT22;3740;50.700;7.184;2023-04-03T07:14:06;5.50;99.90
7399;DHT22;3740;50.700;7.184;2023-04-03T07:16:33;5.40;99.90
7399;DHT22;3740;50.700;7.184;2023-04-03T07:19:00;5.50;99.90
7399;DHT22;3740;50.700;7.184;2023-04-03T07:21:25;5.60;99.90
7399;DHT22;3740;50.700;7.184;2023-04-03T07:23:51;5.80;99.90
7399;DHT22;3740;50.700;7.184;2023-04-03T07:26:17;5.80;99.90
7399;DHT22;3740;50.700;7.184;2023-04-03T07:28:43;6.00;99.90
7399;DHT22;3740;50.700;7.184;2023-04-03T07:31:13;6.00;99.90
7399;DHT22;3740;50.700;7.184;2023-04-03T07:33:39;5.90;99.90
7399;DHT22;3740;50.700;7.184;2023-04-03T07:36:06;5.70;99.90
7399;DHT22;3740;50.700;7.184;2023-04-03T07:38:33;5.80;99.90
7399;DHT22;3740;50.700;7.184;2023-04-03T07:40:59;5.80;99.90
7399;DHT22;3740;50.700;7.184;2023-04-03T07:43:24;6.10;99.90
7399;DHT22;3740;50.700;7.184;2023-04-03T07:45:50;6.30;99.90
7399;DHT22;3740;50.700;7.184;2023-04-03T07:48:18;6.50;99.90
7399;DHT22;3740;50.700;7.184;2023-04-03T07:50:44;6.50;99.90
7399;DHT22;3740;50.700;7.184;2023-04-03T07:53:09;6.60;99.90
7399;DHT22;3740;50.700;7.184;2023-04-03T07:55:35;6.50;99.90
7399;DHT22;3740;50.700;7.184;2023-04-03T07:58:11;6.40;99.90
7399;DHT22;3740;50.700;7.184;2023-04-03T08:00:37;6.50;99.90
7399;DHT22;3740;50.700;7.184;2023-04-03T08:03:04;6.60;99.90
7399;DHT22;3740;50.700;7.184;2023-04-03T08:05:29;6.80;99.90
7399;DHT22;3740;50.700;7.184;2023-04-03T08:07:55;6.90;99.90
7399;DHT22;3740;50.700;7.184;2023-04-03T08:10:20;6.90;99.90
7399;DHT22;3740;50.700;7.184;2023-04-03T08:12:47;6.90;99.90
7399;DHT22;3740;50.700;7.184;2023-04-03T08:15:13;6.90;99.90
7399;DHT22;3740;50.700;7.184;2023-04-03T08:17:38;6.90;99.90
7399;DHT22;3740;50.700;7.184;2023-04-03T08:20:05;7.00;99.90
7399;DHT22;3740;50.700;7.184;2023-04-03T08:22:32;7.10;99.90
7399;DHT22;3740;50.700;7.184;2023-04-03T08:24:58;7.20;99.90
7399;DHT22;3740;50.700;7.184;2023-04-03T08:27:23;7.30;99.90
7399;DHT22;3740;50.700;7.184;2023-04-03T08:29:49;7.40;99.90
7399;DHT22;3740;50.700;7.184;2023-04-03T08:32:15;7.30;99.90
7399;DHT22;3740;50.700;7.184;2023-04-03T08:34:41;7.20;99.90
7399;DHT22;3740;50.700;7.184;2023-04-03T08:37:06;7.30;99.90
7399;DHT22;3740;50.700;7.184;2023-04-03T08:39:32;7.30;99.90
7399;DHT22;3740;50.700;7.184;2023-04-03T08:41:59;7.40;99.90
7399;DHT22;3740;50.700;7.184;2023-04-03T08:44:45;7.50;99.90
7399;DHT22;3740;50.700;7.184;2023-04-03T08:48:08;7.50;99.90
7399;DHT22;3740;50.700;7.184;2023-04-03T08:50:31;7.60;99.90
7399;DHT22;3740;50.700;7.184;2023-04-03T08:52:59;7.60;99.90
7399;DHT22;3740;50.700;7.184;2023-04-03T08:58:09;7.70;99.90
7399;DHT22;3740;50.700;7.184;2023-04-03T09:00:54;7.60;99.90
7399;DHT22;3740;50.700;7.184;2023-04-03T09:03:21;7.50;99.90
7399;DHT22;3740;50.700;7.184;2023-04-03T09:06:01;7.60;99.90
7399;DHT22;3740;50.700;7.184;2023-04-03T09:08:34;7.80;99.90
7399;DHT22;3740;50.700;7.184;2023-04-03T09:13:54;7.90;99.90
7399;DHT22;3740;50.700;7.184;2023-04-03T09:19:15;7.80;99.90
7399;DHT22;3740;50.700;7.184;2023-04-03T09:21:46;8.00;99.90
7399;DHT22;3740;50.700;7.184;2023-04-03T09:24:14;7.90;99.90
7399;DHT22;3740;50.700;7.184;2023-04-03T09:26:59;8.10;99.90
7399;DHT22;3740;50.700;7.184;2023-04-03T09:29:27;8.20;99.90
7399;DHT22;3740;50.700;7.184;2023-04-03T09:31:58;8.40;99.90
7399;DHT22;3740;50.700;7.184;2023-04-03T09:34:35;8.50;99.90
7399;DHT22;3740;50.700;7.184;2023-04-03T09:37:02;8.60;99.90
7399;DHT22;3740;50.700;7.184;2023-04-03T09:39:51;8.60;99.90
7399;DHT22;3740;50.700;7.184;2023-04-03T09:42:21;8.70;99.90
7399;DHT22;3740;50.700;7.184;2023-04-03T09:45:03;8.80;99.90
7399;DHT22;3740;50.700;7.184;2023-04-03T09:47:34;8.70;99.80
7399;DHT22;3740;50.700;7.184;2023-04-03T09:52:42;8.80;99.90
7399;DHT22;3740;50.700;7.184;2023-04-03T09:55:21;8.80;98.50
7399;DHT22;3740;50.700;7.184;2023-04-03T09:57:57;8.80;99.70
7399;DHT22;3740;50.700;7.184;2023-04-03T10:00:23;8.70;99.10
7399;DHT22;3740;50.700;7.184;2023-04-03T10:02:54;8.80;98.20
7399;DHT22;3740;50.700;7.184;2023-04-03T10:05:32;8.90;97.00
7399;DHT22;3740;50.700;7.184;2023-04-03T10:10:33;9.00;98.80
7399;DHT22;3740;50.700;7.184;2023-04-03T10:13:07;9.10;97.70
7399;DHT22;3740;50.700;7.184;2023-04-03T10:15:42;9.30;98.10
7399;DHT22;3740;50.700;7.184;2023-04-03T10:18:39;9.40;97.40
7399;DHT22;3740;50.700;7.184;2023-04-03T10:21:46;9.50;97.80
7399;DHT22;3740;50.700;7.184;2023-04-03T10:24:23;9.80;93.40
7399;DHT22;3740;50.700;7.184;2023-04-03T10:26:58;9.80;92.00
7399;DHT22;3740;50.700;7.184;2023-04-03T10:32:52;10.00;92.10
7399;DHT22;3740;50.700;7.184;2023-04-03T10:35:42;10.30;91.80
7399;DHT22;3740;50.700;7.184;2023-04-03T10:40:59;11.30;90.30
7399;DHT22;3740;50.700;7.184;2023-04-03T10:43:40;12.80;82.60
7399;DHT22;3740;50.700;7.184;2023-04-03T10:46:36;15.40;72.00
7399;DHT22;3740;50.700;7.184;2023-04-03T10:49:30;17.70;65.40
7399;DHT22;3740;50.700;7.184;2023-04-03T10:54:41;21.90;47.20
7399;DHT22;3740;50.700;7.184;2023-04-03T10:57:09;22.40;45.30
7399;DHT22;3740;50.700;7.184;2023-04-03T10:59:51;23.40;44.90
7399;DHT22;3740;50.700;7.184;2023-04-03T11:05:18;26.10;43.80
7399;DHT22;3740;50.700;7.184;2023-04-03T11:07:50;26.20;40.80
7399;DHT22;3740;50.700;7.184;2023-04-03T11:10:40;26.90;38.00
7399;DHT22;3740;50.700;7.184;2023-04-03T11:13:14;26.60;35.60
7399;DHT22;3740;50.700;7.184;2023-04-03T11:15:42;26.30;37.20
7399;DHT22;3740;50.700;7.184;2023-04-03T11:18:15;26.80;36.70
7399;DHT22;3740;50.700;7.184;2023-04-03T11:20:47;28.70;35.60
7399;DHT22;3740;50.700;7.184;2023-04-03T11:23:22;28.90;35.40
7399;DHT22;3740;50.700;7.184;2023-04-03T11:25:51;28.90;34.40
7399;DHT22;3740;50.700;7.184;2023-04-03T11:28:18;27.40;33.50
7399;DHT22;3740;50.700;7.184;2023-04-03T11:30:57;27.10;34.50
7399;DHT22;3740;50.700;7.184;2023-04-03T11:36:40;26.80;36.50
7399;DHT22;3740;50.700;7.184;2023-04-03T11:41:47;28.30;35.30
7399;DHT22;3740;50.700;7.184;2023-04-03T11:44:28;28.10;34.60
7399;DHT22;3740;50.700;7.184;2023-04-03T11:47:01;27.60;33.10
7399;DHT22;3740;50.700;7.184;2023-04-03T12:27:02;25.00;34.30
7399;DHT22;3740;50.700;7.184;2023-04-03T12:29:47;25.20;35.40
7399;DHT22;3740;50.700;7.184;2023-04-03T12:41:11;25.20;35.10
7399;DHT22;3740;50.700;7.184;2023-04-03T12:43:49;24.90;34.20
7399;DHT22;3740;50.700;7.184;2023-04-03T12:46:21;24.30;34.70
7399;DHT22;3740;50.700;7.184;2023-04-03T12:48:55;24.40;35.30
7399;DHT22;3740;50.700;7.184;2023-04-03T12:51:40;24.70;32.60
7399;DHT22;3740;50.700;7.184;2023-04-03T12:56:43;23.20;34.00
7399;DHT22;3740;50.700;7.184;2023-04-03T12:59:24;22.90;34.30
7399;DHT22;3740;50.700;7.184;2023-04-03T13:04:20;21.70;36.60
7399;DHT22;3740;50.700;7.184;2023-04-03T13:06:46;22.40;36.40
7399;DHT22;3740;50.700;7.184;2023-04-03T13:09:22;22.50;35.60
7399;DHT22;3740;50.700;7.184;2023-04-03T13:11:57;22.60;35.70
7399;DHT22;3740;50.700;7.184;2023-04-03T13:14:25;22.40;35.60
7399;DHT22;3740;50.700;7.184;2023-04-03T13:17:06;22.00;35.90
7399;DHT22;3740;50.700;7.184;2023-04-03T13:19:32;21.70;34.40
7399;DHT22;3740;50.700;7.184;2023-04-03T13:22:04;21.70;36.30
7399;DHT22;3740;50.700;7.184;2023-04-03T13:24:33;21.00;38.60
7399;DHT22;3740;50.700;7.184;2023-04-03T13:27:00;21.20;37.40
7399;DHT22;3740;50.700;7.184;2023-04-03T13:29:32;20.50;36.70
7399;DHT22;3740;50.700;7.184;2023-04-03T13:31:59;20.50;34.70
7399;DHT22;3740;50.700;7.184;2023-04-03T13:34:28;19.80;37.40
7399;DHT22;3740;50.700;7.184;2023-04-03T13:36:58;19.50;38.40
7399;DHT22;3740;50.700;7.184;2023-04-03T13:39:30;19.60;39.00
7399;DHT22;3740;50.700;7.184;2023-04-03T13:41:58;19.80;37.20
7399;DHT22;3740;50.700;7.184;2023-04-03T13:44:36;19.90;39.00
7399;DHT22;3740;50.700;7.184;2023-04-03T13:49:42;19.10;37.20
7399;DHT22;3740;50.700;7.184;2023-04-03T13:52:22;18.90;39.80
7399;DHT22;3740;50.700;7.184;2023-04-03T13:54:52;19.10;38.70
7399;DHT22;3740;50.700;7.184;2023-04-03T13:57:19;19.30;38.80
7399;DHT22;3740;50.700;7.184;2023-04-03T13:59:45;19.50;38.00
7399;DHT22;3740;50.700;7.184;2023-04-03T14:02:29;19.30;37.90
7399;DHT22;3740;50.700;7.184;2023-04-03T14:04:58;19.10;39.70
7399;DHT22;3740;50.700;7.184;2023-04-03T14:07:27;19.20;40.00
7399;DHT22;3740;50.700;7.184;2023-04-03T14:09:53;19.10;42.10
7399;DHT22;3740;50.700;7.184;2023-04-03T14:14:54;18.90;41.00
7399;DHT22;3740;50.700;7.184;2023-04-03T14:17:23;18.70;38.30
7399;DHT22;3740;50.700;7.184;2023-04-03T14:19:50;18.50;39.00
7399;DHT22;3740;50.700;7.184;2023-04-03T14:22:29;18.40;41.30
7399;DHT22;3740;50.700;7.184;2023-04-03T14:24:55;18.90;40.10
7399;DHT22;3740;50.700;7.184;2023-04-03T14:27:26;18.70;39.70
7399;DHT22;3740;50.700;7.184;2023-04-03T14:29:53;19.20;39.60
7399;DHT22;3740;50.700;7.184;2023-04-03T14:32:21;18.70;37.20
7399;DHT22;3740;50.700;7.184;2023-04-03T14:34:47;18.20;37.60
7399;DHT22;3740;50.700;7.184;2023-04-03T14:37:19;18.00;38.70
7399;DHT22;3740;50.700;7.184;2023-04-03T14:39:45;17.90;41.80
7399;DHT22;3740;50.700;7.184;2023-04-03T14:42:17;17.80;40.20
7399;DHT22;3740;50.700;7.184;2023-04-03T14:44:43;17.70;41.70
7399;DHT22;3740;50.700;7.184;2023-04-03T14:47:11;17.50;40.50
7399;DHT22;3740;50.700;7.184;2023-04-03T14:49:37;16.70;41.20
7399;DHT22;3740;50.700;7.184;2023-04-03T14:52:03;16.60;43.00
7399;DHT22;3740;50.700;7.184;2023-04-03T14:54:28;16.40;40.10
7399;DHT22;3740;50.700;7.184;2023-04-03T14:56:55;16.60;41.30
7399;DHT22;3740;50.700;7.184;2023-04-03T14:59:22;16.40;43.50
7399;DHT22;3740;50.700;7.184;2023-04-03T15:01:48;16.20;40.60
7399;DHT22;3740;50.700;7.184;2023-04-03T15:04:16;16.00;41.00
7399;DHT22;3740;50.700;7.184;2023-04-03T15:06:42;15.80;42.00
7399;DHT22;3740;50.700;7.184;2023-04-03T15:09:22;15.90;42.70
7399;DHT22;3740;50.700;7.184;2023-04-03T15:11:50;15.90;40.20
7399;DHT22;3740;50.700;7.184;2023-04-03T15:14:15;16.00;43.60
7399;DHT22;3740;50.700;7.184;2023-04-03T15:16:41;15.70;41.00
7399;DHT22;3740;50.700;7.184;2023-04-03T15:19:07;15.60;41.70
7399;DHT22;3740;50.700;7.184;2023-04-03T15:21:32;15.60;43.70
7399;DHT22;3740;50.700;7.184;2023-04-03T15:23:58;15.30;42.30
7399;DHT22;3740;50.700;7.184;2023-04-03T15:26:23;15.30;44.80
7399;DHT22;3740;50.700;7.184;2023-04-03T15:28:49;15.40;43.90
7399;DHT22;3740;50.700;7.184;2023-04-03T15:31:15;15.40;43.80
7399;DHT22;3740;50.700;7.184;2023-04-03T15:33:40;15.20;43.40
7399;DHT22;3740;50.700;7.184;2023-04-03T15:36:07;15.10;43.00
7399;DHT22;3740;50.700;7.184;2023-04-03T15:38:32;15.50;42.90
7399;DHT22;3740;50.700;7.184;2023-04-03T15:40:58;15.60;44.90
7399;DHT22;3740;50.700;7.184;2023-04-03T15:43:23;15.70;44.10
7399;DHT22;3740;50.700;7.184;2023-04-03T15:45:49;15.70;43.50
7399;DHT22;3740;50.700;7.184;2023-04-03T15:48:16;15.60;43.10
7399;DHT22;3740;50.700;7.184;2023-04-03T15:50:42;15.60;43.10
7399;DHT22;3740;50.700;7.184;2023-04-03T15:53:09;15.40;45.30
7399;DHT22;3740;50.700;7.184;2023-04-03T15:55:36;15.50;43.30
7399;DHT22;3740;50.700;7.184;2023-04-03T15:58:02;15.30;42.20
7399;DHT22;3740;50.700;7.184;2023-04-03T16:00:29;14.90;42.40
7399;DHT22;3740;50.700;7.184;2023-04-03T16:02:58;14.50;43.30
7399;DHT22;3740;50.700;7.184;2023-04-03T16:05:24;14.20;42.20
7399;DHT22;3740;50.700;7.184;2023-04-03T16:07:50;14.00;44.40
7399;DHT22;3740;50.700;7.184;2023-04-03T16:10:17;13.90;45.20
7399;DHT22;3740;50.700;7.184;2023-04-03T16:12:43;14.00;44.70
7399;DHT22;3740;50.700;7.184;2023-04-03T16:15:10;14.00;46.80
7399;DHT22;3740;50.700;7.184;2023-04-03T16:17:37;13.90;44.30
7399;DHT22;3740;50.700;7.184;2023-04-03T16:20:04;13.70;42.80
7399;DHT22;3740;50.700;7.184;2023-04-03T16:22:30;13.40;43.60
7399;DHT22;3740;50.700;7.184;2023-04-03T16:24:56;13.30;46.10
7399;DHT22;3740;50.700;7.184;2023-04-03T16:27:22;13.40;44.80
7399;DHT22;3740;50.700;7.184;2023-04-03T16:29:56;13.40;44.90
7399;DHT22;3740;50.700;7.184;2023-04-03T16:32:22;13.40;45.00
7399;DHT22;3740;50.700;7.184;2023-04-03T16:34:48;13.00;43.60
7399;DHT22;3740;50.700;7.184;2023-04-03T16:37:15;12.70;43.60
7399;DHT22;3740;50.700;7.184;2023-04-03T16:39:41;12.50;42.10
7399;DHT22;3740;50.700;7.184;2023-04-03T16:42:06;12.60;45.60
7399;DHT22;3740;50.700;7.184;2023-04-03T16:44:32;12.60;48.70
7399;DHT22;3740;50.700;7.184;2023-04-03T16:46:58;12.70;48.20
7399;DHT22;3740;50.700;7.184;2023-04-03T16:49:24;12.80;46.70
7399;DHT22;3740;50.700;7.184;2023-04-03T16:51:50;12.70;47.20
7399;DHT22;3740;50.700;7.184;2023-04-03T16:54:15;12.50;45.10
7399;DHT22;3740;50.700;7.184;2023-04-03T16:56:41;12.20;44.80
7399;DHT22;3740;50.700;7.184;2023-04-03T16:59:06;12.10;46.50
7399;DHT22;3740;50.700;7.184;2023-04-03T17:01:32;12.20;49.90
7399;DHT22;3740;50.700;7.184;2023-04-03T17:03:58;12.20;49.90
7399;DHT22;3740;50.700;7.184;2023-04-03T17:06:23;12.20;46.90
7399;DHT22;3740;50.700;7.184;2023-04-03T17:08:50;12.10;46.10
7399;DHT22;3740;50.700;7.184;2023-04-03T17:11:17;12.00;46.70
7399;DHT22;3740;50.700;7.184;2023-04-03T17:13:42;12.00;45.60
7399;DHT22;3740;50.700;7.184;2023-04-03T17:16:11;11.70;45.60
7399;DHT22;3740;50.700;7.184;2023-04-03T17:18:38;11.40;46.90
7399;DHT22;3740;50.700;7.184;2023-04-03T17:21:04;11.40;48.90
7399;DHT22;3740;50.700;7.184;2023-04-03T17:23:30;11.60;51.30
7399;DHT22;3740;50.700;7.184;2023-04-03T17:25:56;11.60;50.50
7399;DHT22;3740;50.700;7.184;2023-04-03T17:28:22;11.70;49.60
7399;DHT22;3740;50.700;7.184;2023-04-03T17:31:00;11.50;46.20
7399;DHT22;3740;50.700;7.184;2023-04-03T17:33:27;11.50;46.30
7399;DHT22;3740;50.700;7.184;2023-04-03T17:35:59;11.40;46.70
7399;DHT22;3740;50.700;7.184;2023-04-03T17:38:30;11.40;49.60
7399;DHT22;3740;50.700;7.184;2023-04-03T17:41:01;11.60;51.30
7399;DHT22;3740;50.700;7.184;2023-04-03T17:43:27;11.50;51.80
7399;DHT22;3740;50.700;7.184;2023-04-03T17:45:53;11.50;50.60
7399;DHT22;3740;50.700;7.184;2023-04-03T17:48:28;11.20;48.20
7399;DHT22;3740;50.700;7.184;2023-04-03T17:50:53;10.90;48.00
7399;DHT22;3740;50.700;7.184;2023-04-03T17:53:19;10.60;49.10
7399;DHT22;3740;50.700;7.184;2023-04-03T17:55:44;10.60;48.50
7399;DHT22;3740;50.700;7.184;2023-04-03T17:58:10;10.60;50.60
7399;DHT22;3740;50.700;7.184;2023-04-03T18:00:36;10.70;52.80
7399;DHT22;3740;50.700;7.184;2023-04-03T18:03:03;10.70;51.60